createdAt,value
2023-11-22T00:00:29.845Z,6.20
2023-11-22T00:01:30.230Z,6.19
2023-11-22T00:02:29.927Z,6.15
2023-11-22T00:03:29.765Z,6.10
2023-11-22T00:04:29.754Z,6.09
2023-11-22T00:05:30.202Z,6.06
2023-11-22T00:06:29.724Z,6.06
2023-11-22T00:07:30.924Z,6.06
2023-11-22T00:08:29.737Z,6.06
2023-11-22T00:09:29.712Z,6.06
2023-11-22T00:10:29.713Z,6.05
2023-11-22T00:11:30.534Z,6.01
2023-11-22T00:12:29.756Z,5.99
2023-11-22T00:13:30.725Z,5.99
2023-11-22T00:14:29.685Z,5.98
2023-11-22T00:15:29.598Z,5.98
2023-11-22T00:16:31.288Z,5.98
2023-11-22T00:17:29.788Z,5.98
2023-11-22T00:18:29.617Z,5.98
2023-11-22T00:19:29.559Z,5.98
2023-11-22T00:20:29.572Z,5.98
2023-11-22T00:21:29.828Z,5.97
2023-11-22T00:22:29.504Z,5.99
2023-11-22T00:23:29.548Z,5.97
2023-11-22T00:24:29.496Z,5.97
2023-11-22T00:25:29.469Z,5.97
2023-11-22T00:26:29.500Z,5.91
2023-11-22T00:27:33.235Z,5.88
2023-11-22T00:28:29.436Z,5.87
2023-11-22T00:29:29.484Z,5.84
2023-11-22T00:30:29.538Z,5.84
2023-11-22T00:31:29.389Z,5.80
2023-11-22T00:32:29.442Z,5.77
2023-11-22T00:33:29.624Z,5.76
2023-11-22T00:34:29.364Z,5.79
2023-11-22T00:35:29.406Z,5.80
2023-11-22T00:36:29.322Z,5.79
2023-11-22T00:37:30.266Z,5.80
2023-11-22T00:38:29.345Z,5.81
2023-11-22T00:39:29.277Z,5.81
2023-11-22T00:40:29.267Z,5.83
2023-11-22T00:41:29.302Z,5.81
2023-11-22T00:42:29.281Z,5.81
2023-11-22T00:43:29.232Z,5.80
2023-11-22T00:44:29.218Z,5.80
2023-11-22T00:45:29.211Z,5.81
2023-11-22T00:46:29.260Z,5.83
2023-11-22T00:47:29.309Z,5.83
2023-11-22T00:48:29.185Z,5.81
2023-11-22T00:49:29.140Z,5.79
2023-11-22T00:50:29.218Z,5.77
2023-11-22T00:51:29.110Z,5.77
2023-11-22T00:52:29.119Z,5.74
2023-11-22T00:53:30.010Z,5.72
2023-11-22T00:54:30.078Z,5.69
2023-11-22T00:55:29.090Z,5.65
2023-11-22T00:56:29.143Z,5.70
2023-11-22T00:57:29.052Z,5.69
2023-11-22T00:58:29.030Z,5.72
2023-11-22T00:59:29.063Z,5.72
2023-11-22T01:00:28.992Z,5.73
2023-11-22T01:01:28.997Z,5.70
2023-11-22T01:02:29.052Z,5.70
2023-11-22T01:03:29.029Z,5.72
2023-11-22T01:04:28.932Z,5.74
2023-11-22T01:05:29.327Z,5.74
2023-11-22T01:06:28.910Z,5.77
2023-11-22T01:07:28.913Z,5.79
2023-11-22T01:08:28.936Z,5.80
2023-11-22T01:09:28.865Z,5.83
2023-11-22T01:10:28.878Z,5.84
2023-11-22T01:11:28.865Z,5.83
2023-11-22T01:12:28.857Z,5.81
2023-11-22T01:13:28.817Z,5.83
2023-11-22T01:14:28.846Z,5.84
2023-11-22T01:15:28.798Z,5.87
2023-11-22T01:16:28.773Z,5.84
2023-11-22T01:17:29.012Z,5.87
2023-11-22T01:18:37.663Z,5.87
2023-11-22T01:19:28.753Z,5.90
2023-11-22T01:20:28.748Z,5.91
2023-11-22T01:21:28.695Z,5.90
2023-11-22T01:22:28.711Z,5.87
2023-11-22T01:23:28.693Z,5.88
2023-11-22T01:24:28.668Z,5.90
2023-11-22T01:25:28.679Z,5.91
2023-11-22T01:26:28.717Z,5.92
2023-11-22T01:27:28.655Z,5.88
2023-11-22T01:28:28.642Z,5.87
2023-11-22T01:29:28.660Z,5.87
2023-11-22T01:30:28.598Z,5.91
2023-11-22T01:31:28.598Z,5.95
2023-11-22T01:32:28.667Z,5.98
2023-11-22T01:33:28.541Z,5.99
2023-11-22T01:34:28.532Z,6.01
2023-11-22T01:35:28.580Z,6.01
2023-11-22T01:36:28.513Z,6.06
2023-11-22T01:37:28.518Z,6.10
2023-11-22T01:38:28.532Z,6.12
2023-11-22T01:39:28.457Z,6.13
2023-11-22T01:40:28.449Z,6.15
2023-11-22T01:41:28.552Z,6.16
2023-11-22T01:42:28.449Z,6.16
2023-11-22T01:43:28.408Z,6.16
2023-11-22T01:44:28.474Z,6.16
2023-11-22T01:45:28.388Z,6.16
2023-11-22T01:46:28.407Z,6.19
2023-11-22T01:47:28.591Z,6.19
2023-11-22T01:48:28.356Z,6.20
2023-11-22T01:49:28.335Z,6.25
2023-11-22T01:50:28.434Z,6.25
2023-11-22T01:51:28.342Z,6.20
2023-11-22T01:52:28.309Z,6.19
2023-11-22T01:53:28.379Z,6.15
2023-11-22T01:54:28.289Z,6.15
2023-11-22T01:55:28.345Z,6.13
2023-11-22T01:56:28.511Z,6.10
2023-11-22T01:57:28.339Z,6.05
2023-11-22T01:58:28.313Z,5.99
2023-11-22T01:59:28.317Z,6.01
2023-11-22T02:00:29.398Z,5.98
2023-11-22T02:01:28.262Z,5.95
2023-11-22T02:02:28.269Z,5.98
2023-11-22T02:03:28.384Z,5.97
2023-11-22T02:04:28.163Z,5.98
2023-11-22T02:05:28.149Z,5.95
2023-11-22T02:06:28.110Z,5.95
2023-11-22T02:07:28.091Z,6.02
2023-11-22T02:08:28.091Z,6.07
2023-11-22T02:09:28.063Z,6.12
2023-11-22T02:10:28.084Z,6.15
2023-11-22T02:11:28.065Z,6.13
2023-11-22T02:12:28.031Z,6.13
2023-11-22T02:13:28.021Z,6.15
2023-11-22T02:14:28.149Z,6.16
2023-11-22T02:15:28.000Z,6.19
2023-11-22T02:16:28.051Z,6.19
2023-11-22T02:17:28.051Z,6.19
2023-11-22T02:18:28.006Z,6.22
2023-11-22T02:19:27.957Z,6.25
2023-11-22T02:20:27.925Z,6.28
2023-11-22T02:21:27.898Z,6.28
2023-11-22T02:22:27.897Z,6.32
2023-11-22T02:23:28.081Z,6.29
2023-11-22T02:24:27.883Z,6.28
2023-11-22T02:25:27.845Z,6.28
2023-11-22T02:26:27.869Z,6.29
2023-11-22T02:27:27.843Z,6.28
2023-11-22T02:28:27.837Z,6.31
2023-11-22T02:29:27.826Z,6.29
2023-11-22T02:30:27.801Z,6.31
2023-11-22T02:31:27.762Z,6.29
2023-11-22T02:32:27.809Z,6.31
2023-11-22T02:33:27.760Z,6.29
2023-11-22T02:34:27.788Z,6.26
2023-11-22T02:35:27.711Z,6.25
2023-11-22T02:36:27.719Z,6.20
2023-11-22T02:37:27.680Z,6.25
2023-11-22T02:38:27.722Z,6.26
2023-11-22T02:39:27.653Z,6.25
2023-11-22T02:40:27.666Z,6.26
2023-11-22T02:41:27.679Z,6.25
2023-11-22T02:42:27.623Z,6.28
2023-11-22T02:43:27.609Z,6.22
2023-11-22T02:44:27.611Z,6.19
2023-11-22T02:45:27.580Z,6.17
2023-11-22T02:46:27.667Z,6.19
2023-11-22T02:47:27.667Z,6.16
2023-11-22T02:48:27.548Z,6.13
2023-11-22T02:49:27.529Z,6.10
2023-11-22T02:50:27.559Z,6.09
2023-11-22T02:51:27.487Z,6.07
2023-11-22T02:52:27.557Z,6.12
2023-11-22T02:53:27.481Z,6.12
2023-11-22T02:54:27.457Z,6.12
2023-11-22T02:55:27.444Z,6.12
2023-11-22T02:56:48.438Z,6.13
2023-11-22T02:57:27.438Z,6.10
2023-11-22T02:58:27.518Z,6.07
2023-11-22T02:59:27.435Z,6.07
2023-11-22T03:00:27.371Z,6.07
2023-11-22T03:01:27.452Z,6.06
2023-11-22T03:02:27.462Z,6.05
2023-11-22T03:03:27.428Z,6.01
2023-11-22T03:04:27.330Z,5.97
2023-11-22T03:05:27.345Z,5.97
2023-11-22T03:06:27.298Z,5.98
2023-11-22T03:07:27.289Z,5.97
2023-11-22T03:08:27.287Z,5.94
2023-11-22T03:09:27.246Z,5.92
2023-11-22T03:10:27.227Z,5.90
2023-11-22T03:11:27.285Z,5.87
2023-11-22T03:12:27.211Z,5.80
2023-11-22T03:13:27.200Z,5.79
2023-11-22T03:14:27.210Z,5.76
2023-11-22T03:15:27.174Z,5.72
2023-11-22T03:16:27.212Z,5.67
2023-11-22T03:17:27.182Z,5.59
2023-11-22T03:18:27.138Z,5.55
2023-11-22T03:19:27.108Z,5.54
2023-11-22T03:20:27.112Z,5.47
2023-11-22T03:21:27.100Z,5.43
2023-11-22T03:22:27.088Z,5.40
2023-11-22T03:23:27.092Z,5.37
2023-11-22T03:24:27.044Z,5.34
2023-11-22T03:25:27.058Z,5.29
2023-11-22T03:26:27.055Z,5.26
2023-11-22T03:27:27.015Z,5.22
2023-11-22T03:28:26.989Z,5.20
2023-11-22T03:29:27.021Z,5.20
2023-11-22T03:30:26.995Z,5.15
2023-11-22T03:31:26.965Z,5.16
2023-11-22T03:32:27.005Z,5.13
2023-11-22T03:33:26.975Z,5.15
2023-11-22T03:34:26.965Z,5.13
2023-11-22T03:35:26.966Z,5.16
2023-11-22T03:36:26.900Z,5.16
2023-11-22T03:37:26.893Z,5.16
2023-11-22T03:38:26.920Z,5.13
2023-11-22T03:39:26.898Z,5.13
2023-11-22T03:40:26.874Z,5.12
2023-11-22T03:41:26.869Z,5.13
2023-11-22T03:42:26.821Z,5.13
2023-11-22T03:43:26.809Z,5.10
2023-11-22T03:44:26.969Z,5.07
2023-11-22T03:45:26.788Z,5.04
2023-11-22T03:46:26.782Z,5.01
2023-11-22T03:47:26.939Z,4.98
2023-11-22T03:48:26.778Z,4.97
2023-11-22T03:49:26.750Z,4.94
2023-11-22T03:50:26.766Z,4.92
2023-11-22T03:51:26.720Z,4.94
2023-11-22T03:52:26.687Z,4.94
2023-11-22T03:53:26.703Z,4.98
2023-11-22T03:54:26.678Z,5.00
2023-11-22T03:55:26.674Z,4.98
2023-11-22T03:56:26.678Z,4.94
2023-11-22T03:57:26.627Z,4.92
2023-11-22T03:58:26.629Z,4.89
2023-11-22T03:59:26.654Z,4.89
2023-11-22T04:00:26.609Z,4.89
2023-11-22T04:01:26.617Z,4.86
2023-11-22T04:02:26.578Z,4.87
2023-11-22T04:03:26.704Z,4.90
2023-11-22T04:04:26.555Z,4.89
2023-11-22T04:05:26.571Z,4.89
2023-11-22T04:06:26.534Z,4.84
2023-11-22T04:07:26.499Z,4.87
2023-11-22T04:08:26.532Z,4.84
2023-11-22T04:09:26.471Z,4.79
2023-11-22T04:10:26.480Z,4.82
2023-11-22T04:11:26.466Z,4.70
2023-11-22T04:12:26.458Z,4.64
2023-11-22T04:13:26.446Z,4.64
2023-11-22T04:14:26.445Z,4.67
2023-11-22T04:15:26.404Z,4.61
2023-11-22T04:16:26.411Z,4.63
2023-11-22T04:17:26.479Z,4.57
2023-11-22T04:18:26.425Z,4.50
2023-11-22T04:19:26.349Z,4.49
2023-11-22T04:20:26.380Z,4.50
2023-11-22T04:21:26.322Z,4.49
2023-11-22T04:22:26.327Z,4.45
2023-11-22T04:23:26.316Z,4.40
2023-11-22T04:24:26.280Z,4.36
2023-11-22T04:25:26.273Z,4.32
2023-11-22T04:26:26.295Z,4.30
2023-11-22T04:27:26.266Z,4.30
2023-11-22T04:28:26.250Z,4.28
2023-11-22T04:29:26.235Z,4.27
2023-11-22T04:30:26.206Z,4.24
2023-11-22T04:31:26.212Z,4.24
2023-11-22T04:32:26.324Z,4.28
2023-11-22T04:33:26.424Z,4.30
2023-11-22T04:34:26.175Z,4.30
2023-11-22T04:35:26.211Z,4.34
2023-11-22T04:36:26.162Z,4.32
2023-11-22T04:37:26.115Z,4.36
2023-11-22T04:38:26.201Z,4.32
2023-11-22T04:39:26.095Z,4.32
2023-11-22T04:40:26.088Z,4.31
2023-11-22T04:41:26.113Z,4.28
2023-11-22T04:42:26.060Z,4.24
2023-11-22T04:43:26.047Z,4.21
2023-11-22T04:44:26.063Z,4.18
2023-11-22T04:45:26.032Z,4.12
2023-11-22T04:46:26.044Z,4.13
2023-11-22T04:47:26.034Z,4.10
2023-11-22T04:48:26.058Z,4.09
2023-11-22T04:49:25.969Z,4.03
2023-11-22T04:50:25.988Z,4.04
2023-11-22T04:51:25.958Z,4.04
2023-11-22T04:52:25.937Z,4.02
2023-11-22T04:53:25.965Z,4.03
2023-11-22T04:54:25.897Z,4.00
2023-11-22T04:55:25.922Z,3.95
2023-11-22T04:56:25.896Z,3.91
2023-11-22T04:57:25.875Z,3.92
2023-11-22T04:58:25.849Z,3.92
2023-11-22T04:59:25.908Z,3.91
2023-11-22T05:00:25.864Z,3.89
2023-11-22T05:01:26.859Z,3.91
2023-11-22T05:02:25.817Z,3.88
2023-11-22T05:03:25.831Z,3.84
2023-11-22T05:04:25.805Z,3.81
2023-11-22T05:05:25.849Z,3.82
2023-11-22T05:06:25.755Z,3.78
2023-11-22T05:07:25.744Z,3.77
2023-11-22T05:08:25.745Z,3.78
2023-11-22T05:09:25.739Z,3.73
2023-11-22T05:10:25.779Z,3.73
2023-11-22T05:11:25.774Z,3.76
2023-11-22T05:12:25.710Z,3.76
2023-11-22T05:13:25.692Z,3.74
2023-11-22T05:14:25.720Z,3.76
2023-11-22T05:15:25.639Z,3.77
2023-11-22T05:16:25.705Z,3.76
2023-11-22T05:17:25.740Z,3.74
2023-11-22T05:18:25.658Z,3.73
2023-11-22T05:19:25.590Z,3.70
2023-11-22T05:20:25.586Z,3.67
2023-11-22T05:21:25.571Z,3.66
2023-11-22T05:22:25.563Z,3.66
2023-11-22T05:23:25.606Z,3.61
2023-11-22T05:24:25.529Z,3.59
2023-11-22T05:25:25.540Z,3.58
2023-11-22T05:26:25.546Z,3.58
2023-11-22T05:27:25.492Z,3.58
2023-11-22T05:28:25.492Z,3.61
2023-11-22T05:29:28.450Z,3.66
2023-11-22T05:30:26.444Z,3.67
2023-11-22T05:31:25.461Z,3.67
2023-11-22T05:32:25.444Z,3.66
2023-11-22T05:33:25.486Z,3.66
2023-11-22T05:34:25.384Z,3.66
2023-11-22T05:35:25.425Z,3.59
2023-11-22T05:36:25.397Z,3.56
2023-11-22T05:37:26.279Z,3.53
2023-11-22T05:38:25.384Z,3.49
2023-11-22T05:39:25.359Z,3.48
2023-11-22T05:40:25.312Z,3.40
2023-11-22T05:41:25.345Z,3.36
2023-11-22T05:42:25.315Z,3.34
2023-11-22T05:43:25.281Z,3.31
2023-11-22T05:44:25.288Z,3.33
2023-11-22T05:45:25.251Z,3.34
2023-11-22T05:46:25.244Z,3.36
2023-11-22T05:47:25.274Z,3.37
2023-11-22T05:48:25.346Z,3.37
2023-11-22T05:49:25.225Z,3.37
2023-11-22T05:50:25.253Z,3.41
2023-11-22T05:51:25.245Z,3.43
2023-11-22T05:52:25.180Z,3.46
2023-11-22T05:53:25.235Z,3.48
2023-11-22T05:54:25.176Z,3.49
2023-11-22T05:55:26.086Z,3.46
2023-11-22T05:56:25.169Z,3.45
2023-11-22T05:57:25.274Z,3.43
2023-11-22T05:58:25.211Z,3.45
2023-11-22T05:59:25.180Z,3.45
2023-11-22T06:00:25.099Z,3.43
2023-11-22T06:01:25.078Z,3.40
2023-11-22T06:02:25.105Z,3.33
2023-11-22T06:03:25.128Z,3.31
2023-11-22T06:04:25.118Z,3.29
2023-11-22T06:05:25.125Z,3.29
2023-11-22T06:06:25.000Z,3.27
2023-11-22T06:07:24.982Z,3.27
2023-11-22T06:08:25.030Z,3.29
2023-11-22T06:09:24.946Z,3.31
2023-11-22T06:10:24.956Z,3.34
2023-11-22T06:11:24.983Z,3.95
2023-11-22T06:12:24.901Z,5.95
2023-11-22T06:13:24.910Z,7.53
2023-11-22T06:14:24.957Z,8.36
2023-11-22T06:15:25.082Z,8.86
2023-11-22T06:16:24.894Z,9.26
2023-11-22T06:17:24.905Z,9.64
2023-11-22T06:18:24.845Z,9.81
2023-11-22T06:19:24.814Z,8.95
2023-11-22T06:20:24.846Z,8.05
2023-11-22T06:21:24.795Z,7.22
2023-11-22T06:22:24.782Z,6.46
2023-11-22T06:23:24.811Z,5.79
2023-11-22T06:24:24.788Z,5.13
2023-11-22T06:25:24.770Z,4.67
2023-11-22T06:26:24.826Z,4.30
2023-11-22T06:27:24.762Z,3.99
2023-11-22T06:28:24.700Z,3.73
2023-11-22T06:29:24.720Z,3.53
2023-11-22T06:30:24.687Z,3.40
2023-11-22T06:31:24.659Z,3.31
2023-11-22T06:32:24.693Z,3.24
2023-11-22T06:33:24.692Z,3.19
2023-11-22T06:34:24.634Z,3.15
2023-11-22T06:35:24.665Z,3.15
2023-11-22T06:36:24.626Z,3.15
2023-11-22T06:37:24.608Z,3.12
2023-11-22T06:38:24.612Z,3.12
2023-11-22T06:39:24.596Z,3.08
2023-11-22T06:40:24.565Z,3.08
2023-11-22T06:41:24.571Z,3.08
2023-11-22T06:42:24.529Z,3.06
2023-11-22T06:43:24.520Z,3.01
2023-11-22T06:44:24.582Z,3.03
2023-11-22T06:45:24.491Z,3.01
2023-11-22T06:46:24.488Z,3.03
2023-11-22T06:47:24.551Z,3.03
2023-11-22T06:48:24.558Z,3.05
2023-11-22T06:49:24.460Z,3.05
2023-11-22T06:50:24.431Z,3.01
2023-11-22T06:51:24.414Z,2.97
2023-11-22T06:52:24.402Z,2.94
2023-11-22T06:53:24.426Z,2.91
2023-11-22T06:54:24.381Z,2.90
2023-11-22T06:55:24.373Z,2.83
2023-11-22T06:56:24.396Z,2.79
2023-11-22T06:57:24.362Z,2.70
2023-11-22T06:58:24.355Z,2.59
2023-11-22T06:59:24.360Z,2.47
2023-11-22T07:00:24.291Z,2.40
2023-11-22T07:01:24.295Z,2.36
2023-11-22T07:02:24.380Z,2.34
2023-11-22T07:03:24.419Z,2.33
2023-11-22T07:04:24.369Z,2.28
2023-11-22T07:05:24.283Z,2.22
2023-11-22T07:06:24.218Z,2.18
2023-11-22T07:07:24.224Z,2.15
2023-11-22T07:08:24.199Z,2.08
2023-11-22T07:09:24.182Z,2.07
2023-11-22T07:10:24.164Z,2.07
2023-11-22T07:11:24.221Z,2.12
2023-11-22T07:12:24.146Z,2.22
2023-11-22T07:13:24.136Z,2.30
2023-11-22T07:14:24.173Z,2.34
2023-11-22T07:15:24.179Z,2.41
2023-11-22T07:16:24.085Z,2.43
2023-11-22T07:17:24.139Z,2.43
2023-11-22T07:18:24.160Z,2.46
2023-11-22T07:19:31.617Z,2.47
2023-11-22T07:20:24.031Z,2.52
2023-11-22T07:21:24.038Z,2.54
2023-11-22T07:22:24.022Z,2.55
2023-11-22T07:23:23.994Z,2.58
2023-11-22T07:24:23.975Z,2.61
2023-11-22T07:25:23.959Z,2.58
2023-11-22T07:26:24.036Z,2.58
2023-11-22T07:27:23.947Z,2.59
2023-11-22T07:28:23.921Z,2.58
2023-11-22T07:29:23.915Z,2.57
2023-11-22T07:30:23.910Z,2.59
2023-11-22T07:31:24.020Z,2.59
2023-11-22T07:32:23.922Z,2.59
2023-11-22T07:33:23.878Z,2.61
2023-11-22T07:34:23.841Z,2.61
2023-11-22T07:35:23.877Z,2.68
2023-11-22T07:36:23.858Z,2.75
2023-11-22T07:37:23.799Z,2.80
2023-11-22T07:38:23.865Z,2.87
2023-11-22T07:39:23.776Z,2.88
2023-11-22T07:40:23.928Z,2.87
2023-11-22T07:41:23.794Z,2.82
2023-11-22T07:42:23.762Z,2.83
2023-11-22T07:43:23.720Z,2.82
2023-11-22T07:44:23.729Z,2.79
2023-11-22T07:45:23.812Z,2.79
2023-11-22T07:46:23.709Z,2.79
2023-11-22T07:47:23.750Z,2.77
2023-11-22T07:48:23.683Z,2.79
2023-11-22T07:49:23.633Z,2.79
2023-11-22T07:50:23.681Z,2.79
2023-11-22T07:51:23.623Z,2.82
2023-11-22T07:52:23.606Z,2.87
2023-11-22T07:53:23.633Z,2.90
2023-11-22T07:54:23.655Z,2.94
2023-11-22T07:55:23.592Z,2.97
2023-11-22T07:56:23.572Z,3.01
2023-11-22T07:57:23.535Z,3.03
2023-11-22T07:58:23.527Z,3.06
2023-11-22T07:59:23.554Z,3.06
2023-11-22T08:00:23.530Z,3.05
2023-11-22T08:01:23.499Z,3.03
2023-11-22T08:02:23.562Z,3.06
2023-11-22T08:03:23.648Z,3.06
2023-11-22T08:04:23.491Z,3.06
2023-11-22T08:05:23.491Z,3.06
2023-11-22T08:06:23.421Z,3.08
2023-11-22T08:07:23.412Z,3.11
2023-11-22T08:08:23.417Z,3.15
2023-11-22T08:09:23.400Z,3.18
2023-11-22T08:10:23.373Z,3.21
2023-11-22T08:11:23.406Z,3.22
2023-11-22T08:12:23.350Z,3.30
2023-11-22T08:13:23.330Z,3.40
2023-11-22T08:14:24.904Z,3.41
2023-11-22T08:15:23.298Z,3.46
2023-11-22T08:16:23.359Z,3.52
2023-11-22T08:17:23.338Z,3.58
2023-11-22T08:18:23.358Z,3.68
2023-11-22T08:19:23.264Z,3.76
2023-11-22T08:20:23.265Z,3.81
2023-11-22T08:21:23.220Z,3.85
2023-11-22T08:22:23.216Z,3.86
2023-11-22T08:23:23.243Z,3.88
2023-11-22T08:24:23.242Z,3.92
2023-11-22T08:25:23.179Z,3.99
2023-11-22T08:26:23.189Z,3.96
2023-11-22T08:27:23.156Z,4.00
2023-11-22T08:28:23.158Z,4.03
2023-11-22T08:29:23.148Z,4.07
2023-11-22T08:30:23.110Z,4.07
2023-11-22T08:31:23.161Z,4.09
2023-11-22T08:32:23.117Z,4.13
2023-11-22T08:33:23.138Z,4.18
2023-11-22T08:34:23.072Z,4.28
2023-11-22T08:35:23.096Z,4.31
2023-11-22T08:36:23.039Z,4.36
2023-11-22T08:37:23.020Z,4.40
2023-11-22T08:38:23.092Z,4.49
2023-11-22T08:39:23.005Z,4.50
2023-11-22T08:40:23.007Z,4.57
2023-11-22T08:41:22.993Z,4.57
2023-11-22T08:42:22.978Z,4.61
2023-11-22T08:43:22.960Z,4.64
2023-11-22T08:44:22.977Z,4.66
2023-11-22T08:45:22.917Z,4.66
2023-11-22T08:46:22.942Z,4.67
2023-11-22T08:47:22.949Z,4.70
2023-11-22T08:48:22.902Z,4.74
2023-11-22T08:49:22.868Z,4.75
2023-11-22T08:50:22.879Z,4.79
2023-11-22T08:51:22.844Z,4.79
2023-11-22T08:52:22.854Z,4.70
2023-11-22T08:53:22.892Z,4.67
2023-11-22T08:54:22.817Z,4.60
2023-11-22T08:55:22.793Z,4.58
2023-11-22T08:56:22.868Z,4.56
2023-11-22T08:57:22.812Z,4.50
2023-11-22T08:58:22.760Z,4.52
2023-11-22T08:59:22.784Z,4.58
2023-11-22T09:00:22.746Z,4.60
2023-11-22T09:01:22.778Z,4.58
2023-11-22T09:02:22.763Z,4.56
2023-11-22T09:03:22.820Z,4.56
2023-11-22T09:04:22.713Z,4.58
2023-11-22T09:05:22.719Z,4.61
2023-11-22T09:06:22.689Z,4.63
2023-11-22T09:07:22.642Z,4.63
2023-11-22T09:08:25.791Z,4.61
2023-11-22T09:09:23.615Z,4.60
2023-11-22T09:10:22.618Z,4.50
2023-11-22T09:11:22.653Z,4.46
2023-11-22T09:12:22.587Z,4.43
2023-11-22T09:13:22.698Z,4.38
2023-11-22T09:14:22.586Z,4.32
2023-11-22T09:15:22.542Z,4.31
2023-11-22T09:16:22.573Z,4.31
2023-11-22T09:17:22.548Z,4.28
2023-11-22T09:18:22.542Z,4.27
2023-11-22T09:19:22.485Z,4.24
2023-11-22T09:20:22.491Z,4.21
2023-11-22T09:21:22.484Z,4.18
2023-11-22T09:22:22.446Z,4.12
2023-11-22T09:23:22.477Z,4.10
2023-11-22T09:24:22.445Z,4.07
2023-11-22T09:25:22.425Z,4.04
2023-11-22T09:26:22.436Z,4.03
2023-11-22T09:27:22.387Z,4.00
2023-11-22T09:28:22.406Z,4.03
2023-11-22T09:29:22.396Z,4.00
2023-11-22T09:30:22.371Z,4.02
2023-11-22T09:31:22.362Z,3.99
2023-11-22T09:32:22.356Z,3.94
2023-11-22T09:33:22.341Z,3.89
2023-11-22T09:34:22.366Z,3.85
2023-11-22T09:35:22.314Z,3.85
2023-11-22T09:36:22.302Z,3.85
2023-11-22T09:37:22.257Z,3.85
2023-11-22T09:38:22.357Z,3.84
2023-11-22T09:39:22.259Z,3.81
2023-11-22T09:40:22.265Z,3.84
2023-11-22T09:41:22.232Z,3.94
2023-11-22T09:42:22.206Z,4.03
2023-11-22T09:43:22.375Z,4.12
2023-11-22T09:44:22.305Z,4.16
2023-11-22T09:45:22.188Z,4.21
2023-11-22T09:46:22.186Z,4.20
2023-11-22T09:47:22.290Z,4.18
2023-11-22T09:48:22.193Z,4.20
2023-11-22T09:49:22.122Z,4.25
2023-11-22T09:50:22.143Z,4.27
2023-11-22T09:51:22.089Z,4.24
2023-11-22T09:52:22.062Z,4.24
2023-11-22T09:53:22.087Z,4.25
2023-11-22T09:54:22.054Z,4.31
2023-11-22T09:55:22.022Z,4.40
2023-11-22T09:56:22.080Z,4.50
2023-11-22T09:57:22.007Z,4.63
2023-11-22T09:58:21.987Z,4.75
2023-11-22T09:59:22.037Z,4.87
2023-11-22T10:00:21.964Z,4.95
2023-11-22T10:01:21.941Z,5.02
2023-11-22T10:02:22.039Z,5.08
2023-11-22T10:03:22.148Z,5.15
2023-11-22T10:04:21.983Z,5.22
2023-11-22T10:05:21.942Z,5.28
2023-11-22T10:06:21.897Z,5.31
2023-11-22T10:07:21.874Z,5.25
2023-11-22T10:08:21.889Z,5.15
2023-11-22T10:09:21.900Z,5.12
2023-11-22T10:10:21.846Z,5.15
2023-11-22T10:11:21.907Z,5.16
2023-11-22T10:12:21.823Z,5.19
2023-11-22T10:13:21.815Z,5.23
2023-11-22T10:14:21.820Z,5.26
2023-11-22T10:15:21.780Z,5.29
2023-11-22T10:16:21.770Z,5.33
2023-11-22T10:17:21.800Z,5.40
2023-11-22T10:18:21.883Z,5.47
2023-11-22T10:19:21.766Z,5.44
2023-11-22T10:20:21.746Z,5.46
2023-11-22T10:21:21.701Z,5.52
2023-11-22T10:22:21.704Z,5.58
2023-11-22T10:23:21.736Z,5.65
2023-11-22T10:24:21.672Z,5.73
2023-11-22T10:25:21.656Z,5.77
2023-11-22T10:26:21.680Z,5.77
2023-11-22T10:27:22.238Z,5.81
2023-11-22T10:28:21.748Z,5.84
2023-11-22T10:29:21.668Z,5.90
2023-11-22T10:30:21.588Z,5.91
2023-11-22T10:31:21.659Z,5.94
2023-11-22T10:32:21.649Z,5.94
2023-11-22T10:33:21.602Z,5.94
2023-11-22T10:34:21.542Z,5.92
2023-11-22T10:35:21.540Z,5.92
2023-11-22T10:36:21.530Z,5.97
2023-11-22T10:37:21.498Z,5.98
2023-11-22T10:38:21.526Z,6.05
2023-11-22T10:39:21.510Z,5.99
2023-11-22T10:40:21.466Z,5.98
2023-11-22T10:41:21.507Z,5.97
2023-11-22T10:42:21.440Z,5.98
2023-11-22T10:43:21.433Z,5.98
2023-11-22T10:44:21.490Z,5.95
2023-11-22T10:45:21.432Z,5.90
2023-11-22T10:46:21.447Z,5.83
2023-11-22T10:47:21.429Z,5.77
2023-11-22T10:48:21.472Z,5.76
2023-11-22T10:49:21.338Z,5.79
2023-11-22T10:50:21.368Z,5.80
2023-11-22T10:51:21.333Z,5.80
2023-11-22T10:52:21.303Z,5.81
2023-11-22T10:53:21.327Z,5.81
2023-11-22T10:54:21.278Z,5.80
2023-11-22T10:55:21.278Z,5.77
2023-11-22T10:56:22.387Z,5.77
2023-11-22T10:57:21.235Z,5.80
2023-11-22T10:58:21.232Z,5.79
2023-11-22T10:59:21.253Z,5.79
2023-11-22T11:00:21.215Z,5.84
2023-11-22T11:01:21.346Z,5.84
2023-11-22T11:02:21.205Z,5.83
2023-11-22T11:03:21.276Z,5.83
2023-11-22T11:04:21.331Z,5.84
2023-11-22T11:05:21.198Z,5.83
2023-11-22T11:06:21.128Z,5.84
2023-11-22T11:07:21.101Z,5.90
2023-11-22T11:08:21.161Z,5.94
2023-11-22T11:09:21.108Z,5.94
2023-11-22T11:10:24.897Z,5.92
2023-11-22T11:11:21.079Z,5.97
2023-11-22T11:12:21.041Z,5.95
2023-11-22T11:13:21.047Z,6.02
2023-11-22T11:14:21.075Z,6.06
2023-11-22T11:15:21.003Z,6.10
2023-11-22T11:16:21.039Z,6.16
2023-11-22T11:17:21.004Z,6.19
2023-11-22T11:18:21.097Z,6.25
2023-11-22T11:19:20.948Z,6.28
2023-11-22T11:20:21.346Z,6.29
2023-11-22T11:21:20.928Z,6.32
2023-11-22T11:22:21.025Z,6.35
2023-11-22T11:23:21.062Z,6.39
2023-11-22T11:24:20.887Z,6.43
2023-11-22T11:25:20.879Z,6.39
2023-11-22T11:26:20.884Z,6.41
2023-11-22T11:27:20.865Z,6.43
2023-11-22T11:28:21.384Z,6.47
2023-11-22T11:29:20.890Z,6.49
2023-11-22T11:30:20.809Z,6.50
2023-11-22T11:31:20.823Z,6.49
2023-11-22T11:32:20.841Z,6.52
2023-11-22T11:33:20.814Z,6.53
2023-11-22T11:34:20.761Z,6.57
2023-11-22T11:35:20.755Z,6.59
2023-11-22T11:36:20.725Z,6.57
2023-11-22T11:37:20.730Z,6.57
2023-11-22T11:38:20.738Z,6.54
2023-11-22T11:39:20.701Z,6.52
2023-11-22T11:40:20.675Z,6.52
2023-11-22T11:41:20.751Z,6.52
2023-11-22T11:42:22.203Z,6.50
2023-11-22T11:43:20.638Z,6.43
2023-11-22T11:44:20.668Z,6.41
2023-11-22T11:45:20.615Z,6.39
2023-11-22T11:46:20.660Z,6.41
2023-11-22T11:47:20.616Z,6.44
2023-11-22T11:48:20.635Z,6.39
2023-11-22T11:49:20.563Z,6.36
2023-11-22T11:50:20.578Z,6.35
2023-11-22T11:51:20.553Z,6.35
2023-11-22T11:52:20.526Z,6.36
2023-11-22T11:53:20.603Z,6.28
2023-11-22T11:54:20.587Z,6.22
2023-11-22T11:55:20.551Z,6.20
2023-11-22T11:56:20.558Z,6.22
2023-11-22T11:57:20.462Z,6.22
2023-11-22T11:58:20.453Z,6.19
2023-11-22T11:59:20.490Z,6.19
2023-11-22T12:00:20.433Z,6.20
2023-11-22T12:01:20.407Z,6.20
2023-11-22T12:02:20.572Z,6.19
2023-11-22T12:03:20.441Z,6.20
2023-11-22T12:04:20.380Z,6.19
2023-11-22T12:05:20.404Z,6.19
2023-11-22T12:06:20.890Z,6.17
2023-11-22T12:07:20.332Z,6.19
2023-11-22T12:08:20.382Z,6.16
2023-11-22T12:09:20.323Z,6.15
2023-11-22T12:10:20.318Z,6.13
2023-11-22T12:11:20.284Z,6.12
2023-11-22T12:12:20.274Z,6.13
2023-11-22T12:13:20.271Z,6.16
2023-11-22T12:14:20.289Z,6.17
2023-11-22T12:15:20.333Z,6.19
2023-11-22T12:16:20.261Z,6.25
2023-11-22T12:17:20.216Z,6.28
2023-11-22T12:18:20.282Z,6.29
2023-11-22T12:19:20.232Z,6.32
2023-11-22T12:20:20.869Z,6.22
2023-11-22T12:21:20.149Z,6.25
2023-11-22T12:22:20.137Z,6.28
2023-11-22T12:23:20.145Z,6.29
2023-11-22T12:24:20.115Z,6.31
2023-11-22T12:25:20.092Z,6.32
2023-11-22T12:26:20.159Z,6.32
2023-11-22T12:27:20.082Z,6.29
2023-11-22T12:28:20.969Z,6.20
2023-11-22T12:29:20.052Z,6.13
2023-11-22T12:30:20.017Z,6.13
2023-11-22T12:31:20.097Z,6.13
2023-11-22T12:32:20.011Z,6.13
2023-11-22T12:33:20.052Z,6.16
2023-11-22T12:34:19.964Z,6.19
2023-11-22T12:35:19.971Z,6.17
2023-11-22T12:36:19.944Z,6.17
2023-11-22T12:37:19.940Z,6.19
2023-11-22T12:38:19.961Z,6.10
2023-11-22T12:39:19.903Z,5.98
2023-11-22T12:40:19.884Z,5.84
2023-11-22T12:41:19.888Z,5.83
2023-11-22T12:42:19.966Z,5.88
2023-11-22T12:43:19.853Z,5.92
2023-11-22T12:44:19.865Z,5.99
2023-11-22T12:45:19.822Z,6.06
2023-11-22T12:46:19.830Z,6.10
2023-11-22T12:47:19.836Z,6.16
2023-11-22T12:48:19.834Z,6.20
2023-11-22T12:49:19.947Z,6.26
2023-11-22T12:50:20.558Z,6.31
2023-11-22T12:51:19.743Z,6.35
2023-11-22T12:52:19.754Z,6.36
2023-11-22T12:53:19.762Z,6.38
2023-11-22T12:54:19.711Z,6.35
2023-11-22T12:55:19.694Z,6.36
2023-11-22T12:56:19.749Z,6.39
2023-11-22T12:57:21.901Z,6.38
2023-11-22T12:58:19.655Z,6.36
2023-11-22T12:59:19.672Z,6.36
2023-11-22T13:00:19.625Z,6.38
2023-11-22T13:01:19.630Z,6.43
2023-11-22T13:02:19.682Z,6.38
2023-11-22T13:03:19.738Z,6.38
2023-11-22T13:04:19.699Z,6.39
2023-11-22T13:05:19.704Z,6.43
2023-11-22T13:06:19.619Z,6.49
2023-11-22T13:07:19.568Z,6.53
2023-11-22T13:08:19.541Z,6.53
2023-11-22T13:09:19.515Z,6.53
2023-11-22T13:10:19.519Z,6.56
2023-11-22T13:11:19.545Z,6.53
2023-11-22T13:12:19.463Z,6.57
2023-11-22T13:13:19.462Z,6.60
2023-11-22T13:14:19.463Z,6.65
2023-11-22T13:15:19.450Z,6.68
2023-11-22T13:16:19.479Z,6.72
2023-11-22T13:17:19.432Z,6.72
2023-11-22T13:18:19.413Z,6.72